Flight Track Log - Related Links

Times and Time Zones

All times are in EDT time to prevent confusion due to time zone crossing. See the USC105 flight status page for this flight to view local times or setup timezone preferences in your user account.

Time Position Orientation Groundspeed Altitude Reporting Facility
EDT Latitude Longitude Course Direction KTS MPH feet Rate Location/Type
Thu 12:18:03 AM 42.2250 -83.5919 264° West 124 143 2,300  Level Cleveland Center
Thu 12:19:03 AM 42.2236 -83.6397 268° West 119 137 3,400 991 Climbing Cleveland Center
Thu 12:19:58 AM 42.2203 -83.6814 264° West 135 155 4,200 879 Climbing Cleveland Center
Thu 12:20:59 AM 42.2169 -83.7347 265° West 134 154 5,100 893 Climbing Cleveland Center
Thu 12:21:59 AM 42.2153 -83.7878 268° West 145 167 6,000 397 Climbing Cleveland Center
Thu 12:23:00 AM 42.2156 -83.8550 270° West 198 228 5,900  Descending Cleveland Center
Thu 12:25:14 AM 42.2103 -84.0103 267° West 190 219 6,000 31 Climbing Chicago Center
Thu 12:26:15 AM 42.2047 -84.0817 264° West 189 217 6,000  Level Chicago Center
Thu 12:27:15 AM 42.2017 -84.1536 267° West 192 221 6,000  Level Chicago Center
Thu 12:28:16 AM 42.1975 -84.2239 265° West 190 219 6,000  Level Chicago Center
Thu 12:29:16 AM 42.1931 -84.2956 265° West 191 220 6,000  Level Chicago Center
Thu 12:30:17 AM 42.1908 -84.3667 268° West 191 220 6,000  Level Chicago Center
Thu 12:31:17 AM 42.1867 -84.4367 265° West 188 216 6,000  Level Chicago Center
Thu 12:32:18 AM 42.1828 -84.5053 266° West 186 214 6,000  Level Chicago Center
Thu 12:33:18 AM 42.1789 -84.5739 266° West 190 219 6,000  Level Chicago Center
Thu 12:34:19 AM 42.1744 -84.6433 265° West 188 216 6,000  Level Chicago Center
Thu 12:35:19 AM 42.1700 -84.7281 266° West 189 217 6,000  Level Chicago Center
Thu 12:36:20 AM 42.1656 -84.8000 265° West 192 221 6,000  Level Chicago Center
Thu 12:37:20 AM 42.1614 -84.8703 265° West 191 220 6,000  Level Chicago Center
Thu 12:38:21 AM 42.1578 -84.9417 266° West 191 220 6,000  Level Chicago Center
Thu 12:39:21 AM 42.1528 -85.0125 265° West 192 221 6,000  Level Chicago Center
Thu 12:40:22 AM 42.1489 -85.0822 266° West 189 217 6,000  Level Chicago Center
Thu 12:41:22 AM 42.1444 -85.1528 265° West 190 219 6,000  Level Chicago Center
Thu 12:42:23 AM 42.1403 -85.2225 265° West 188 216 6,000  Level Chicago Center
Thu 12:43:23 AM 42.1358 -85.2939 265° West 191 220 6,000  Level Chicago Center
Thu 12:44:24 AM 42.1314 -85.3636 265° West 190 219 6,000  Level Chicago Center
Thu 12:45:24 AM 42.1267 -85.4336 265° West 189 217 6,000  Level Chicago Center
Thu 12:46:25 AM 42.1222 -85.5031 265° West 188 216 6,000  Level Chicago Center
Thu 12:47:25 AM 42.1181 -85.5733 265° West 189 217 6,000  Level Chicago Center
Thu 12:48:26 AM 42.1131 -85.6428 264° West 188 216 6,000  Level Chicago Center
Thu 12:49:26 AM 42.1083 -85.7119 265° West 187 215 6,000  Level Chicago Center
Thu 12:50:26 AM 42.1031 -85.7808 264° West 186 214 6,000  Level Chicago Center
Thu 12:51:27 AM 42.0992 -85.8508 266° West 187 215 6,000  Level Chicago Center
Thu 12:52:27 AM 42.0947 -85.9197 265° West 187 215 6,000  Level Chicago Center
Thu 12:53:28 AM 42.0889 -85.9881 263° West 185 213 6,000  Level Chicago Center
Thu 12:54:28 AM 42.0842 -86.0581 265° West 188 216 6,000  Level Chicago Center
Thu 12:55:29 AM 42.0783 -86.1414 265° West 187 215 6,000  Level Chicago Center
Thu 12:56:29 AM 42.0733 -86.2103 264° West 187 215 6,000  Level Chicago Center
Thu 12:57:29 AM 42.0692 -86.2800 265° West 187 215 6,000  Level Chicago Center
Thu 12:58:30 AM 42.0639 -86.3475 264° West 184 212 6,000  Level Chicago Center
Thu 12:59:31 AM 42.0581 -86.4175 264° West 187 215 6,000  Level Chicago Center
Thu 01:00:32 AM 42.0525 -86.4842 264° West 182 209 6,000  Level Chicago Center
Thu 01:01:32 AM 42.0481 -86.5539 265° West 186 214 6,000  Level Chicago Center
Thu 01:02:32 AM 42.0433 -86.6217 265° West 184 212 6,000  Level Chicago Center
Thu 01:03:33 AM 42.0381 -86.6894 264° West 184 212 6,000  Level Chicago Center
Thu 01:04:33 AM 42.0353 -86.7547 267° West 184 212 6,000  Level Chicago Center
Thu 01:05:33 AM 42.0297 -86.8231 264° West 185 213 6,000  Level Chicago Center
Thu 01:06:34 AM 42.0242 -86.8897 264° West 182 209 6,000  Level Chicago Center
Thu 01:07:34 AM 42.0183 -86.9581 263° West 183 211 6,000  Level Chicago Center
Thu 01:08:35 AM 42.0122 -87.0389 264° West 182 209 6,000 -50 Level Chicago Center
Thu 01:09:35 AM 42.0075 -87.1067 265° West 184 212 5,900 -50 Descending Chicago Center
Thu 01:10:35 AM 42.0011 -87.1739 263° West 183 211 5,900  Level Chicago Center
Thu 01:11:35 AM 41.9967 -87.2411 265° West 181 208 5,900  Level Chicago Center
Thu 01:12:36 AM 41.9906 -87.3089 263° West 182 209 5,900  Level Chicago Center
Thu 01:13:36 AM 41.9858 -87.3767 265° West 184 212 5,900  Level Chicago Center
Thu 01:14:36 AM 41.9803 -87.4433 264° West 181 208 5,900  Level Chicago Center
Thu 01:15:37 AM 41.9744 -87.5103 263° West 182 209 5,900  Level Chicago Center
Thu 01:16:37 AM 41.9694 -87.5761 264° West 180 207 5,900  Level Chicago Center
Thu 01:17:33 AM 41.9667 -87.6333 266° West 174 200 5,900  Level Chicago TRACON
Thu 01:18:39 AM 41.9500 -87.7167 255° West 173 199 5,900  Level Chicago TRACON
Thu 01:19:34 AM 41.9500 -87.7667 270° West 173 199 5,900  Level Chicago TRACON
Thu 01:20:34 AM 41.9500 -87.8333 270° West 171 197 5,900  Level Chicago TRACON
Thu 01:21:34 AM 41.9333 -87.9000 251° West 174 200 5,900  Level Chicago TRACON
Thu 01:22:28 AM 41.9333 -87.9500 270° West 179 206 5,900  Level Chicago TRACON
Thu 01:23:22 AM 41.9333 -88.0000 270° West 166 191 5,900 -263 Level Chicago TRACON
Thu 01:24:22 AM 41.9333 -88.0667 270° West 174 200 5,400 -700 Descending Chicago TRACON
Thu 01:25:22 AM 41.9000 -88.1333 236° Southwest 195 224 4,500 -1,000 Descending Chicago TRACON
Thu 01:26:22 AM 41.8667 -88.1833 228° Southwest 188 216 3,400 -1,190 Descending Chicago TRACON
Thu 01:27:23 AM 41.8500 -88.2500 251° West 198 228 2,100 -1,279 Descending Chicago TRACON
Thu 01:29:00 AM 41.9000 -88.2333 270° West  Level FlightAware Approximate
Thu 01:36:00 AM 41.9071 -88.2480 270° West  Level Estimated
Thu 01:37:00 AM 41.9071 -88.2480 270° West  Level Estimated
Thu 01:38:00 AM 41.9071 -88.2480 270° West  Level Estimated
Thu 01:39:00 AM 41.9071 -88.2480 270° West  Level Estimated
Thu 01:40:00 AM 41.9071 -88.2480 270° West  Level Estimated
Thu 01:41:00 AM 41.9071 -88.2480 270° West  Level Estimated
Thu 01:42:00 AM 41.9071 -88.2480 270° West  Level Estimated
Thu 01:43:00 AM 41.9071 -88.2480 270° West  Level Estimated
Thu 01:44:00 AM 41.9071 -88.2480 270° West  Level Estimated

Login

Don't have an account? Register now (free) for customized features, flight alerts, and more!